Time;durP1;ratioP1;P1;durP2;ratioP2;P2;SDS_P1;SDS_P2;PMS_P1;PMS_P2;Temp;Humidity;BMP_temperature;BMP_pressure;BME280_temperature;BME280_humidity;BME280_pressure;Samples;Min_cycle;Max_cycle;Signal;HPM_P1;HPM_P2
2022/11/18 00:01:46;;;;;;;5.35;3.83;;;21.90;58.40;;;;;;5022373;28;20379;-69
2022/11/18 00:04:12;;;;;;;7.45;4.68;;;21.90;58.50;;;;;;5023193;28;20026;-70
2022/11/18 00:06:38;;;;;;;6.13;4.60;;;21.90;58.40;;;;;;5023182;28;20034;-70
2022/11/18 00:09:04;;;;;;;4.85;4.40;;;21.80;58.40;;;;;;5059886;28;20044;-70
2022/11/18 00:14:23;;;;;;;5.10;4.53;;;21.70;58.20;;;;;;5058673;28;20498;-70
2022/11/18 00:16:53;;;;;;;5.32;4.32;;;21.70;58.50;;;;;;5060846;28;20111;-70
2022/11/18 00:19:22;;;;;;;5.53;4.03;;;21.70;58.20;;;;;;5059558;28;20160;-69
2022/11/18 00:21:49;;;;;;;5.53;3.92;;;21.70;58.30;;;;;;5057137;28;20119;-69
2022/11/18 00:24:15;;;;;;;4.82;4.30;;;21.70;58.20;;;;;;5058021;28;20091;-70
2022/11/18 00:26:41;;;;;;;4.90;4.38;;;21.80;58.30;;;;;;5058792;28;20119;-69
2022/11/18 00:29:12;;;;;;;4.97;4.50;;;21.80;58.40;;;;;;5058255;28;20049;-69
2022/11/18 00:31:38;;;;;;;5.47;4.65;;;21.80;58.20;;;;;;5029584;28;21023;-69
2022/11/18 00:34:04;;;;;;;6.10;4.85;;;21.70;58.10;;;;;;5057410;28;20524;-69
2022/11/18 00:36:31;;;;;;;5.35;4.85;;;21.80;58.00;;;;;;5057580;28;20021;-70
2022/11/18 00:38:57;;;;;;;4.95;4.03;;;21.80;58.10;;;;;;5057247;28;20093;-69
2022/11/18 00:41:23;;;;;;;5.60;4.47;;;21.80;58.00;;;;;;5019416;28;20124;-69
2022/11/18 00:43:49;;;;;;;4.55;4.15;;;21.80;57.90;;;;;;5019344;28;20033;-69
2022/11/18 00:46:15;;;;;;;4.55;3.90;;;21.90;58.00;;;;;;5020898;28;20021;-69
2022/11/18 00:48:41;;;;;;;5.63;5.03;;;21.90;57.80;;;;;;5021168;28;20034;-70
2022/11/18 00:51:17;;;;;;;7.43;4.40;;;21.90;57.60;;;;;;5020396;28;20075;-69
2022/11/18 00:53:43;;;;;;;4.88;4.38;;;21.80;57.60;;;;;;5019247;28;20044;-69
2022/11/18 00:56:10;;;;;;;4.80;4.00;;;21.80;57.60;;;;;;5019202;28;20083;-69
2022/11/18 00:58:36;;;;;;;4.30;3.90;;;21.80;57.60;;;;;;5070150;28;20046;-69
2022/11/18 01:01:03;;;;;;;4.57;3.85;;;21.80;57.60;;;;;;5021523;28;20061;-69
2022/11/18 01:03:29;;;;;;;5.80;4.22;;;21.80;57.60;;;;;;5021034;28;20599;-70
2022/11/18 01:05:55;;;;;;;6.05;4.50;;;21.60;57.60;;;;;;5021838;28;20096;-69
2022/11/18 01:08:22;;;;;;;5.18;4.05;;;21.60;57.60;;;;;;5021521;28;20029;-69
2022/11/18 01:10:48;;;;;;;4.95;4.22;;;21.80;57.80;;;;;;5043746;28;20402;-70
2022/11/18 01:13:20;;;;;;;4.53;3.88;;;21.70;57.80;;;;;;5019458;28;20112;-69
2022/11/18 01:15:54;;;;;;;3.85;3.45;;;21.70;57.90;;;;;;5022993;28;20052;-69
2022/11/18 01:18:24;;;;;;;4.78;3.70;;;21.50;57.70;;;;;;5018517;28;20077;-68
2022/11/18 01:20:50;;;;;;;5.38;4.10;;;21.70;57.80;;;;;;5018668;28;20065;-70
2022/11/18 01:23:17;;;;;;;4.82;4.00;;;21.70;57.80;;;;;;5020636;28;20041;-69
2022/11/18 01:25:45;;;;;;;4.43;4.00;;;21.70;57.70;;;;;;5021773;28;20033;-69
2022/11/18 01:28:12;;;;;;;4.93;4.43;;;21.70;57.70;;;;;;5020807;28;20034;-69
2022/11/18 01:30:39;;;;;;;4.82;4.30;;;21.70;57.60;;;;;;5020424;28;20029;-69
2022/11/18 01:33:06;;;;;;;5.28;4.10;;;21.70;57.60;;;;;;5022495;28;20048;-69
2022/11/18 01:35:40;;;;;;;4.47;4.07;;;21.70;57.50;;;;;;5020791;28;20022;-69
2022/11/18 01:38:09;;;;;;;4.80;4.35;;;21.70;57.50;;;;;;5018923;28;20050;-68
2022/11/18 01:40:36;;;;;;;5.85;4.20;;;21.80;57.40;;;;;;5020781;28;21321;-69
2022/11/18 01:43:04;;;;;;;5.25;4.05;;;21.70;57.40;;;;;;5021296;28;20026;-69
2022/11/18 01:45:39;;;;;;;5.22;4.43;;;21.70;57.20;;;;;;5020594;28;20109;-69
2022/11/18 01:48:10;;;;;;;5.40;4.20;;;21.60;57.30;;;;;;5019028;28;20049;-69
2022/11/18 01:50:42;;;;;;;4.00;3.60;;;21.60;57.20;;;;;;5019684;28;20040;-69
2022/11/18 01:53:13;;;;;;;4.47;4.07;;;21.50;57.20;;;;;;5019996;28;20388;-69
2022/11/18 01:55:44;;;;;;;5.03;4.10;;;21.40;57.30;;;;;;5066532;28;20061;-69
2022/11/18 01:58:29;;;;;;;5.10;4.43;;;21.60;57.40;;;;;;5020157;28;20029;-68
2022/11/18 02:00:56;;;;;;;4.60;3.97;;;21.50;57.30;;;;;;5019467;28;20049;-69
2022/11/18 02:03:23;;;;;;;5.47;4.55;;;21.50;57.50;;;;;;5016286;28;20026;-69
2022/11/18 02:05:50;;;;;;;5.85;3.97;;;21.50;57.40;;;;;;5016738;28;20048;-68
2022/11/18 02:08:18;;;;;;;4.82;4.32;;;21.50;57.40;;;;;;5020198;28;20641;-69
2022/11/18 02:10:43;;;;;;;7.10;4.70;;;21.40;57.40;;;;;;5016181;28;20084;-69
2022/11/18 02:13:11;;;;;;;5.10;4.57;;;21.20;57.30;;;;;;5018950;28;20065;-68
2022/11/18 02:15:59;;;;;;;4.90;4.40;;;21.40;57.30;;;;;;5015770;28;20052;-69
2022/11/18 02:18:33;;;;;;;5.35;4.50;;;21.40;57.30;;;;;;5014737;28;20537;-69
2022/11/18 02:21:25;;;;;;;5.85;4.38;;;21.50;57.30;;;;;;5014870;28;20069;-69
2022/11/18 02:24:22;;;;;;;4.80;4.40;;;21.50;57.30;;;;;;4965050;28;20054;-68
2022/11/18 02:27:11;;;;;;;5.70;4.85;;;21.50;57.20;;;;;;4965415;28;20078;-68
2022/11/18 02:29:47;;;;;;;5.20;4.32;;;21.40;57.00;;;;;;4963514;28;20075;-68
2022/11/18 02:32:18;;;;;;;5.43;4.93;;;21.50;57.00;;;;;;4963264;28;20106;-69
2022/11/18 02:34:59;;;;;;;5.15;4.65;;;21.50;57.00;;;;;;4963660;28;20102;-69
2022/11/18 02:38:05;;;;;;;6.30;4.68;;;21.50;56.90;;;;;;4947669;28;20031;-69
2022/11/18 02:40:37;;;;;;;5.20;4.70;;;21.50;56.80;;;;;;4888062;29;20053;-69
2022/11/18 02:43:11;;;;;;;6.50;4.73;;;21.40;56.80;;;;;;4885581;29;20432;-69
2022/11/18 02:45:43;;;;;;;5.55;5.05;;;21.40;56.70;;;;;;4887159;29;20109;-68
2022/11/18 02:48:11;;;;;;;4.85;4.35;;;21.40;56.80;;;;;;4894435;29;20036;-69
2022/11/18 02:50:38;;;;;;;5.18;4.38;;;21.30;56.80;;;;;;4901513;29;20600;-69
2022/11/18 02:53:07;;;;;;;5.90;4.93;;;21.30;56.80;;;;;;4902116;29;20071;-68
2022/11/18 02:55:35;;;;;;;6.50;5.82;;;21.40;56.80;;;;;;4900441;29;20131;-69
2022/11/18 02:58:04;;;;;;;6.05;5.18;;;21.30;57.00;;;;;;4900378;29;20044;-68
2022/11/18 03:00:31;;;;;;;5.13;4.63;;;21.20;56.80;;;;;;4915261;29;20390;-69
2022/11/18 03:02:56;;;;;;;5.45;4.95;;;21.20;56.80;;;;;;4942574;28;20039;-69
2022/11/18 03:05:47;;;;;;;5.43;4.93;;;21.20;56.80;;;;;;4943530;28;20029;-69
2022/11/18 03:08:19;;;;;;;6.90;5.13;;;21.10;56.70;;;;;;4943449;29;20050;-68
2022/11/18 03:11:28;;;;;;;5.03;4.53;;;21.20;56.70;;;;;;4944000;28;20097;-69
2022/11/18 03:14:11;;;;;;;4.97;4.22;;;21.30;56.70;;;;;;4943015;28;20134;-68
2022/11/18 03:16:51;;;;;;;5.20;4.70;;;21.20;56.50;;;;;;4971983;28;20639;-68
2022/11/18 03:19:35;;;;;;;6.78;4.63;;;21.30;56.50;;;;;;5018394;28;20033;-69
2022/11/18 03:22:13;;;;;;;7.47;5.07;;;21.30;56.40;;;;;;5018252;28;20758;-69
2022/11/18 03:24:45;;;;;;;4.70;4.20;;;21.40;56.30;;;;;;5015228;28;20046;-69
2022/11/18 03:27:20;;;;;;;5.35;4.80;;;21.40;56.20;;;;;;5021754;28;20030;-68
2022/11/18 03:30:07;;;;;;;6.47;5.68;;;21.40;56.20;;;;;;5018119;28;20033;-69
2022/11/18 03:32:38;;;;;;;6.15;4.82;;;21.30;56.10;;;;;;5018764;28;20033;-69
2022/11/18 03:35:24;;;;;;;6.55;5.03;;;21.30;56.00;;;;;;5019271;28;20129;-68
2022/11/18 03:37:53;;;;;;;6.07;5.38;;;21.40;56.00;;;;;;5024997;28;20158;-69
2022/11/18 03:40:30;;;;;;;6.72;4.95;;;21.20;55.90;;;;;;5054395;28;20021;-69
2022/11/18 03:43:05;;;;;;;6.00;5.05;;;21.20;55.90;;;;;;5024815;28;20040;-68
2022/11/18 03:45:50;;;;;;;5.90;4.85;;;21.20;56.00;;;;;;5024782;28;20038;-69
2022/11/18 03:48:20;;;;;;;6.40;5.30;;;21.20;56.10;;;;;;5024684;28;20464;-69
2022/11/18 03:51:12;;;;;;;5.85;5.07;;;21.10;56.10;;;;;;5023957;28;21016;-69
2022/11/18 03:53:51;;;;;;;6.43;5.03;;;21.10;56.20;;;;;;5021451;28;21738;-69
2022/11/18 03:56:23;;;;;;;6.07;5.13;;;21.10;56.20;;;;;;5024493;28;20052;-68
2022/11/18 03:59:12;;;;;;;8.75;5.25;;;21.10;56.10;;;;;;5024256;28;20044;-69
2022/11/18 04:01:49;;;;;;;8.63;5.32;;;21.20;56.10;;;;;;5025251;28;20045;-69
2022/11/18 04:04:15;;;;;;;7.47;5.18;;;21.20;56.00;;;;;;5024487;28;20470;-68
2022/11/18 04:06:59;;;;;;;6.57;4.75;;;21.20;55.90;;;;;;5023128;28;20063;-69
2022/11/18 04:09:38;;;;;;;6.07;4.90;;;21.20;55.70;;;;;;5024102;28;20120;-69
2022/11/18 04:12:12;;;;;;;8.00;5.30;;;21.20;55.60;;;;;;5021454;28;20505;-69
2022/11/18 04:14:41;;;;;;;6.97;5.65;;;21.30;55.60;;;;;;5022956;28;20069;-69
2022/11/18 04:17:10;;;;;;;8.60;5.18;;;21.20;55.50;;;;;;5021679;28;20041;-68
2022/11/18 04:19:36;;;;;;;8.63;5.55;;;21.30;55.50;;;;;;5020974;28;20037;-69
2022/11/18 04:22:03;;;;;;;8.30;5.82;;;21.30;55.40;;;;;;5022394;28;20398;-68
2022/11/18 04:24:29;;;;;;;8.38;6.07;;;21.40;55.30;;;;;;5020335;28;20085;-68
2022/11/18 04:26:55;;;;;;;9.73;6.18;;;21.40;55.30;;;;;;5022052;28;20041;-69
2022/11/18 04:29:21;;;;;;;8.98;5.63;;;21.50;55.30;;;;;;5019774;28;20057;-69
2022/11/18 04:31:46;;;;;;;10.60;6.35;;;21.20;55.10;;;;;;5041634;28;20609;-69
2022/11/18 04:34:12;;;;;;;12.73;6.68;;;21.20;55.30;;;;;;5019924;28;20037;-69
2022/11/18 04:36:39;;;;;;;11.55;6.78;;;21.20;55.40;;;;;;5020516;28;20034;-69
2022/11/18 04:39:05;;;;;;;8.43;6.47;;;21.30;55.40;;;;;;5023998;28;20863;-69
2022/11/18 04:44:15;;;;;;;10.27;6.35;;;21.40;55.30;;;;;;5025246;28;20927;-69
2022/11/18 04:46:42;;;;;;;7.55;5.85;;;21.30;55.40;;;;;;5024479;28;20029;-69
2022/11/18 04:49:11;;;;;;;8.73;6.00;;;21.30;55.20;;;;;;5021226;28;20033;-69
2022/11/18 04:51:38;;;;;;;9.02;6.45;;;21.10;55.30;;;;;;5023256;28;20037;-69
2022/11/18 04:54:04;;;;;;;7.93;5.88;;;21.10;55.50;;;;;;5018245;28;20041;-68
2022/11/18 04:56:30;;;;;;;6.03;4.75;;;21.10;55.50;;;;;;5028606;28;20033;-68
2022/11/18 04:59:01;;;;;;;7.47;5.53;;;21.20;55.50;;;;;;5019229;28;20041;-68
2022/11/18 05:01:28;;;;;;;7.88;5.88;;;21.10;55.50;;;;;;5021224;28;20505;-69
2022/11/18 05:03:54;;;;;;;7.07;5.90;;;21.20;55.20;;;;;;5019303;28;20482;-68
2022/11/18 05:06:20;;;;;;;6.00;5.03;;;21.20;55.10;;;;;;5018133;28;20370;-69
2022/11/18 05:08:46;;;;;;;8.85;5.93;;;21.40;55.10;;;;;;5018455;28;20042;-69
2022/11/18 05:13:57;;;;;;;8.00;6.35;;;21.40;54.80;;;;;;5024758;28;20123;-69
2022/11/18 05:16:23;;;;;;;11.52;6.30;;;21.40;54.70;;;;;;5020625;28;20486;-69
2022/11/18 05:18:49;;;;;;;8.85;6.07;;;21.40;54.70;;;;;;5018815;28;20108;-69
2022/11/18 05:21:15;;;;;;;8.00;6.32;;;21.50;54.80;;;;;;5020659;28;20022;-69
2022/11/18 05:23:41;;;;;;;7.40;5.53;;;21.50;54.70;;;;;;5018465;28;20079;-69
2022/11/18 05:26:09;;;;;;;9.32;5.78;;;21.40;54.50;;;;;;5019713;28;20397;-69
2022/11/18 05:28:35;;;;;;;8.20;6.55;;;21.50;55.00;;;;;;5018791;28;20044;-69
2022/11/18 05:31:12;;;;;;;6.93;5.47;;;21.40;54.90;;;;;;5021794;28;20034;-69
2022/11/18 05:33:39;;;;;;;8.68;6.05;;;21.30;55.10;;;;;;5021064;28;20117;-69
2022/11/18 05:36:11;;;;;;;9.52;6.07;;;21.30;55.20;;;;;;5022689;28;20503;-69
2022/11/18 05:38:37;;;;;;;7.67;6.40;;;21.20;55.10;;;;;;5020742;28;20036;-69
2022/11/18 05:41:03;;;;;;;8.25;6.43;;;21.30;55.30;;;;;;5019544;28;20057;-69
2022/11/18 05:43:30;;;;;;;11.30;6.70;;;21.20;55.30;;;;;;5018211;28;20026;-69
2022/11/18 05:45:56;;;;;;;9.35;6.35;;;21.20;55.30;;;;;;5020525;28;20030;-69
2022/11/18 05:48:23;;;;;;;9.98;6.60;;;21.10;55.30;;;;;;5017761;28;20537;-69
2022/11/18 05:50:50;;;;;;;9.27;7.10;;;21.10;55.30;;;;;;5019450;28;20072;-69
2022/11/18 05:53:19;;;;;;;8.60;6.93;;;21.20;55.30;;;;;;5018944;28;20039;-69
2022/11/18 05:56:11;;;;;;;9.32;6.95;;;21.20;55.20;;;;;;5019636;28;20037;-69
2022/11/18 05:58:37;;;;;;;8.88;6.40;;;21.20;55.10;;;;;;5017751;28;20109;-69
2022/11/18 06:01:05;;;;;;;12.25;6.30;;;21.20;54.80;;;;;;5016788;28;20072;-69
2022/11/18 06:03:35;;;;;;;9.15;6.40;;;21.20;54.80;;;;;;5017326;28;20044;-69
2022/11/18 06:06:04;;;;;;;8.25;6.60;;;21.30;54.90;;;;;;5017242;28;20042;-68
2022/11/18 06:08:35;;;;;;;8.48;6.10;;;21.20;54.60;;;;;;5015162;28;20037;-70
2022/11/18 06:11:01;;;;;;;8.43;6.45;;;21.30;54.70;;;;;;5019213;28;20037;-69
2022/11/18 06:13:49;;;;;;;8.05;6.20;;;21.30;54.50;;;;;;5026552;28;20199;-69
2022/11/18 06:16:20;;;;;;;8.45;6.32;;;21.30;54.40;;;;;;5016732;28;20112;-69
2022/11/18 06:18:46;;;;;;;7.88;6.50;;;21.30;54.40;;;;;;5018553;28;20083;-69
2022/11/18 06:21:12;;;;;;;11.40;6.78;;;21.30;54.50;;;;;;5014561;28;20053;-69
2022/11/18 06:23:40;;;;;;;9.40;7.03;;;21.20;54.40;;;;;;5019043;28;20022;-68
2022/11/18 06:26:08;;;;;;;11.18;6.65;;;21.30;54.60;;;;;;5018303;28;20061;-68
2022/11/18 06:28:35;;;;;;;6.60;5.28;;;21.10;54.50;;;;;;5021493;28;20042;-69
2022/11/18 06:31:01;;;;;;;6.80;5.60;;;21.10;54.60;;;;;;5032337;28;21846;-69
2022/11/18 06:33:27;;;;;;;9.25;6.10;;;21.20;54.60;;;;;;5016802;28;20045;-69
2022/11/18 06:35:53;;;;;;;7.93;5.05;;;21.10;54.60;;;;;;5019083;28;20033;-69
2022/11/18 06:38:18;;;;;;;8.70;6.13;;;21.10;54.70;;;;;;5014182;28;20448;-67
2022/11/18 06:40:44;;;;;;;6.85;6.15;;;21.10;54.70;;;;;;5017125;28;20030;-68
2022/11/18 06:48:45;;;;;;;6.93;5.57;;;21.20;48.00;;;;;;5023763;28;20046;-69
2022/11/18 06:51:11;;;;;;;6.30;5.28;;;21.30;48.00;;;;;;5019710;28;20043;-70
2022/11/18 06:53:37;;;;;;;5.88;5.28;;;21.50;48.60;;;;;;5016060;28;20048;-70
2022/11/18 06:56:04;;;;;;;7.07;6.13;;;21.50;47.90;;;;;;5018852;28;20030;-67
2022/11/18 06:58:30;;;;;;;6.60;5.53;;;21.60;48.80;;;;;;5020962;28;20038;-70
2022/11/18 07:00:56;;;;;;;10.20;7.22;;;21.60;51.00;;;;;;5018277;28;20239;-70
2022/11/18 07:03:22;;;;;;;6.50;5.88;;;21.60;50.30;;;;;;5021262;28;20216;-68
2022/11/18 07:05:48;;;;;;;6.35;4.97;;;21.80;49.80;;;;;;5021737;28;20681;-69
2022/11/18 07:08:14;;;;;;;6.80;5.45;;;21.80;47.60;;;;;;5018137;28;20116;-69
2022/11/18 07:10:40;;;;;;;5.28;4.78;;;21.80;48.00;;;;;;5018444;28;20104;-68
2022/11/18 07:13:06;;;;;;;5.97;4.47;;;21.70;47.50;;;;;;5018677;28;20065;-68
2022/11/18 07:15:33;;;;;;;5.07;4.38;;;21.80;47.60;;;;;;5018410;28;20197;-69
2022/11/18 07:17:59;;;;;;;3.97;3.65;;;21.90;47.60;;;;;;5020338;28;20474;-69
2022/11/18 07:20:25;;;;;;;8.85;4.43;;;21.90;46.40;;;;;;5022118;28;20073;-68
2022/11/18 07:22:54;;;;;;;8.63;5.32;;;22.00;50.20;;;;;;5020297;28;20454;-69
2022/11/18 07:25:20;;;;;;;10.38;5.45;;;22.20;58.00;;;;;;5005599;28;20072;-69
2022/11/18 07:27:46;;;;;;;7.00;5.18;;;22.20;61.00;;;;;;5004172;28;20552;-68
2022/11/18 07:30:12;;;;;;;6.93;4.70;;;22.30;58.80;;;;;;5007312;28;20094;-69
2022/11/18 07:32:38;;;;;;;7.32;4.55;;;22.20;58.30;;;;;;5012123;28;20088;-68
2022/11/18 07:35:05;;;;;;;7.68;4.68;;;22.20;59.00;;;;;;5007121;28;20038;-67
2022/11/18 07:37:31;;;;;;;6.28;4.68;;;22.30;59.50;;;;;;5009286;28;20037;-66
2022/11/18 07:39:58;;;;;;;9.50;4.93;;;22.30;59.60;;;;;;5009502;28;20038;-66
2022/11/18 07:42:24;;;;;;;5.63;4.57;;;22.20;60.10;;;;;;5000079;28;20458;-66
2022/11/18 07:44:50;;;;;;;7.70;5.18;;;22.30;60.90;;;;;;5006562;28;20131;-67
2022/11/18 07:47:16;;;;;;;5.65;4.90;;;22.20;61.70;;;;;;5013669;28;20096;-67
2022/11/18 07:49:42;;;;;;;5.72;4.63;;;22.30;61.60;;;;;;5004124;28;20045;-67
2022/11/18 07:52:08;;;;;;;7.75;4.85;;;22.30;61.70;;;;;;5010019;28;20069;-67
2022/11/18 07:54:34;;;;;;;6.00;4.95;;;22.30;61.90;;;;;;5011359;28;20084;-69
2022/11/18 07:57:00;;;;;;;7.20;5.95;;;22.30;62.10;;;;;;5015835;28;20486;-67
2022/11/18 07:59:26;;;;;;;8.55;5.63;;;22.30;62.20;;;;;;5020443;28;20124;-67
2022/11/18 08:01:52;;;;;;;9.55;4.80;;;22.40;61.90;;;;;;5019904;28;20029;-67
2022/11/18 08:04:18;;;;;;;6.43;5.10;;;22.40;62.10;;;;;;5019527;28;20033;-67
2022/11/18 08:06:44;;;;;;;7.88;5.95;;;22.50;61.60;;;;;;5020564;28;20025;-67
2022/11/18 08:09:10;;;;;;;7.45;6.65;;;22.50;61.70;;;;;;5016252;28;20046;-67
2022/11/18 08:11:36;;;;;;;10.27;6.40;;;22.60;61.60;;;;;;5019231;28;20045;-66
2022/11/18 08:14:03;;;;;;;8.05;6.78;;;22.50;62.00;;;;;;5018524;28;20041;-67
2022/11/18 08:16:29;;;;;;;9.98;6.47;;;22.60;61.60;;;;;;5019299;28;20044;-67
2022/11/18 08:18:57;;;;;;;5.97;4.07;;;22.70;51.10;;;;;;5019754;28;20030;-66
2022/11/18 08:21:23;;;;;;;6.97;5.25;;;22.90;48.60;;;;;;5025742;28;20036;-68
2022/11/18 08:23:56;;;;;;;10.07;5.15;;;22.90;47.90;;;;;;5021600;28;20029;-66
2022/11/18 08:26:23;;;;;;;7.82;5.50;;;22.90;46.50;;;;;;5022507;28;20061;-67
2022/11/18 08:28:50;;;;;;;8.70;6.38;;;23.00;45.60;;;;;;5027197;28;20589;-68
2022/11/18 08:31:23;;;;;;;14.60;6.32;;;23.10;56.10;;;;;;5021873;28;20129;-68
2022/11/18 08:33:53;;;;;;;;;;;23.20;57.20;;;;;;5023613;28;20044;-66
2022/11/18 08:36:22;;;;;;;10.07;7.57;;;23.10;57.60;;;;;;5022660;28;19913;-68
2022/11/18 08:38:48;;;;;;;8.10;6.05;;;23.00;57.80;;;;;;5020048;28;20045;-66
2022/11/18 08:41:28;;;;;;;6.85;5.45;;;23.00;58.60;;;;;;5023033;28;20033;-67
2022/11/18 08:43:54;;;;;;;7.32;4.70;;;23.00;61.00;;;;;;5022554;28;20048;-68
2022/11/18 08:46:20;;;;;;;5.22;3.72;;;23.00;60.50;;;;;;5034642;28;20045;-69
2022/11/18 08:48:46;;;;;;;5.30;3.92;;;23.00;60.20;;;;;;5024028;28;20034;-74
2022/11/18 08:51:12;;;;;;;6.95;4.25;;;22.90;60.50;;;;;;5021677;28;20034;-75
2022/11/18 08:53:38;;;;;;;4.95;4.03;;;22.90;59.80;;;;;;5021907;28;20363;-71
2022/11/18 08:56:05;;;;;;;6.85;4.75;;;22.90;59.40;;;;;;5024029;28;20046;-73
2022/11/18 08:58:31;;;;;;;4.82;4.00;;;23.10;60.00;;;;;;5027384;28;20108;-71
2022/11/18 09:00:57;;;;;;;8.00;4.28;;;23.00;62.20;;;;;;5022188;28;20029;-72
2022/11/18 09:03:23;;;;;;;10.88;4.72;;;23.00;53.20;;;;;;5053624;28;20375;-73
2022/11/18 09:05:49;;;;;;;6.22;5.22;;;23.10;56.10;;;;;;5022773;28;20560;-70
2022/11/18 09:08:15;;;;;;;4.28;3.75;;;23.30;49.50;;;;;;5022287;28;20038;-69
2022/11/18 09:10:42;;;;;;;5.30;4.80;;;23.40;45.90;;;;;;5021220;28;20453;-70
2022/11/18 09:13:07;;;;;;;7.55;4.70;;;23.50;50.50;;;;;;5021144;28;20478;-69
2022/11/18 09:15:34;;;;;;;8.30;5.65;;;23.40;56.20;;;;;;5022712;28;20057;-72
2022/11/18 09:18:00;;;;;;;9.93;5.35;;;23.40;56.80;;;;;;5018857;28;20049;-73
2022/11/18 09:20:26;;;;;;;7.28;5.45;;;23.40;57.80;;;;;;5020289;28;20060;-71
2022/11/18 09:22:52;;;;;;;6.00;5.28;;;23.20;58.50;;;;;;5022237;28;20029;-76
2022/11/18 09:25:18;;;;;;;6.85;5.18;;;23.40;58.70;;;;;;5022616;28;20029;-72
2022/11/18 09:27:44;;;;;;;5.70;5.18;;;23.20;59.00;;;;;;5026676;28;20037;-71
2022/11/18 09:30:11;;;;;;;7.57;4.63;;;23.20;58.90;;;;;;5038555;28;20033;-72
2022/11/18 09:32:37;;;;;;;5.35;4.15;;;23.30;59.10;;;;;;5032132;28;20034;-73
2022/11/18 09:35:03;;;;;;;5.63;4.93;;;23.30;60.10;;;;;;5035090;28;20043;-73
2022/11/18 09:37:29;;;;;;;8.68;5.43;;;23.50;61.50;;;;;;5046819;28;20056;-72
2022/11/18 09:39:55;;;;;;;13.07;5.78;;;23.50;62.10;;;;;;5037009;28;20072;-70
2022/11/18 09:42:42;;;;;;;7.85;6.53;;;23.50;61.80;;;;;;5025774;28;20478;-70
2022/11/18 09:45:27;;;;;;;8.02;5.28;;;23.60;60.20;;;;;;5037172;28;20036;-70
2022/11/18 09:47:58;;;;;;;8.95;6.70;;;23.60;59.00;;;;;;5028546;28;20064;-71
2022/11/18 09:50:25;;;;;;;8.65;6.18;;;23.60;57.80;;;;;;5040733;28;20072;-72
2022/11/18 09:53:07;;;;;;;12.23;6.97;;;23.60;57.40;;;;;;5049462;28;20079;-71
2022/11/18 09:55:38;;;;;;;6.40;5.18;;;23.60;57.10;;;;;;5023977;28;20164;-70
2022/11/18 09:58:05;;;;;;;8.32;5.57;;;23.60;56.10;;;;;;5031993;28;20032;-70
2022/11/18 10:00:32;;;;;;;6.28;5.20;;;23.60;55.90;;;;;;5035302;28;20029;-73
2022/11/18 10:03:11;;;;;;;5.30;4.28;;;23.60;55.60;;;;;;5033914;28;20029;-72
2022/11/18 10:05:46;;;;;;;9.77;7.47;;;23.60;55.70;;;;;;5033453;28;20028;-72
2022/11/18 10:08:21;;;;;;;6.88;5.82;;;23.60;55.90;;;;;;5049240;28;20036;-73
2022/11/18 10:10:50;;;;;;;7.20;6.05;;;23.60;57.90;;;;;;5011855;28;20045;-70
2022/11/18 10:13:47;;;;;;;8.43;5.05;;;23.70;56.90;;;;;;5038511;28;20120;-71
2022/11/18 10:16:40;;;;;;;9.55;5.53;;;23.70;57.80;;;;;;5030586;28;20060;-73
2022/11/18 10:19:39;;;;;;;8.55;5.90;;;23.70;56.50;;;;;;5030182;28;20103;-69
2022/11/18 10:22:38;;;;;;;8.52;5.15;;;23.60;55.00;;;;;;5031449;28;20030;-70
2022/11/18 10:25:12;;;;;;;9.60;6.78;;;23.80;54.60;;;;;;5035332;28;20029;-69
2022/11/18 10:27:41;;;;;;;9.18;6.78;;;23.70;54.10;;;;;;5023250;28;20033;-69
2022/11/18 10:30:27;;;;;;;9.43;6.60;;;23.70;52.10;;;;;;5010934;28;20144;-72
2022/11/18 10:32:58;;;;;;;11.00;6.35;;;23.60;54.40;;;;;;5026443;28;20029;-72
2022/11/18 10:35:36;;;;;;;8.98;6.18;;;23.40;54.10;;;;;;5022527;28;20033;-69
2022/11/18 10:38:14;;;;;;;10.20;6.90;;;23.30;55.30;;;;;;5030915;28;20049;-70
2022/11/18 10:40:46;;;;;;;8.50;6.07;;;23.30;46.90;;;;;;5021710;28;20037;-70
2022/11/18 10:43:44;;;;;;;20.77;5.93;;;23.50;54.70;;;;;;5030252;28;20031;-72
2022/11/18 10:46:34;;;;;;;7.93;5.72;;;23.70;47.50;;;;;;5023266;28;20045;-73
2022/11/18 10:49:21;;;;;;;7.47;5.95;;;23.80;46.50;;;;;;5004321;28;20490;-71
2022/11/18 10:52:09;;;;;;;6.32;5.65;;;23.90;45.20;;;;;;5000911;28;20101;-68
2022/11/18 10:54:35;;;;;;;9.98;6.10;;;23.90;44.40;;;;;;5006415;28;20101;-69
2022/11/18 10:57:10;;;;;;;7.72;6.15;;;23.90;45.30;;;;;;5004198;28;20041;-70
2022/11/18 10:59:43;;;;;;;7.93;5.40;;;23.90;44.70;;;;;;4998901;28;20691;-69
2022/11/18 11:02:21;;;;;;;6.80;5.47;;;23.90;43.70;;;;;;4998121;28;20084;-69
2022/11/18 11:04:50;;;;;;;6.93;6.03;;;23.90;42.90;;;;;;5007256;28;20040;-70
2022/11/18 11:07:33;;;;;;;7.43;5.30;;;23.90;43.00;;;;;;5008719;28;20288;-68
2022/11/18 11:10:05;;;;;;;7.43;5.40;;;23.80;41.80;;;;;;5007418;28;20065;-70
2022/11/18 11:12:47;;;;;;;4.70;4.27;;;23.80;44.70;;;;;;5005062;28;20060;-69
2022/11/18 11:15:18;;;;;;;6.57;5.40;;;23.90;42.40;;;;;;5002334;28;20056;-69
2022/11/18 11:20:43;;;;;;;7.35;5.50;;;23.70;49.00;;;;;;5002917;28;20037;-69
2022/11/18 11:23:11;;;;;;;8.20;6.00;;;24.10;45.20;;;;;;4993180;28;20030;-68
2022/11/18 11:26:00;;;;;;;12.77;7.22;;;24.10;41.90;;;;;;5022798;28;20065;-71
2022/11/18 11:28:34;;;;;;;8.68;5.95;;;23.90;50.70;;;;;;5037401;28;20033;-70
2022/11/18 11:31:10;;;;;;;6.78;6.03;;;23.90;52.60;;;;;;5031108;28;20073;-71
2022/11/18 11:34:00;;;;;;;7.38;6.07;;;24.10;53.40;;;;;;5049287;28;20082;-70
2022/11/18 11:37:02;;;;;;;7.20;6.18;;;24.00;53.50;;;;;;5033122;28;20146;-66
2022/11/18 11:39:50;;;;;;;11.98;6.63;;;23.90;53.90;;;;;;4988830;28;20082;-70
2022/11/18 11:42:27;;;;;;;13.63;7.75;;;23.80;54.10;;;;;;4978616;28;20128;-68
2022/11/18 11:45:02;;;;;;;14.77;7.93;;;23.80;54.40;;;;;;5008876;28;20451;-69
2022/11/18 11:47:46;;;;;;;13.98;8.20;;;23.70;54.70;;;;;;4992709;28;20439;-71
2022/11/18 11:50:21;;;;;;;11.30;8.20;;;23.60;55.00;;;;;;5007536;28;20399;-70
2022/11/18 11:52:52;;;;;;;12.77;8.90;;;23.60;55.60;;;;;;4997907;28;20774;-68
2022/11/18 11:55:29;;;;;;;14.95;8.85;;;23.50;55.70;;;;;;5003010;28;20499;-68
2022/11/18 11:57:58;;;;;;;11.43;8.48;;;23.50;56.50;;;;;;4987552;28;20046;-69
2022/11/18 12:00:24;;;;;;;11.73;7.90;;;23.30;57.10;;;;;;4993073;28;20035;-67
2022/11/18 12:03:15;;;;;;;14.68;9.10;;;23.10;57.40;;;;;;4993486;28;20073;-69
2022/11/18 12:05:42;;;;;;;15.13;9.07;;;23.00;58.40;;;;;;5011288;28;20053;-69
2022/11/18 12:08:27;;;;;;;13.02;8.95;;;23.00;58.50;;;;;;4973771;28;20084;-67
2022/11/18 12:11:04;;;;;;;11.10;8.23;;;22.90;59.00;;;;;;4987859;28;20137;-68
2022/11/18 12:13:56;;;;;;;13.95;8.18;;;22.90;59.60;;;;;;5003427;28;20502;-67
2022/11/18 12:16:43;;;;;;;11.63;7.75;;;22.90;58.90;;;;;;5030950;28;20033;-67
2022/11/18 12:19:18;;;;;;;11.35;7.90;;;22.90;59.50;;;;;;5052839;28;20116;-66
2022/11/18 12:21:44;;;;;;;11.15;7.47;;;22.80;59.40;;;;;;5054291;28;20033;-67
2022/11/18 12:24:16;;;;;;;13.50;9.32;;;22.70;59.50;;;;;;5040268;28;20081;-67
2022/11/18 12:26:44;;;;;;;14.43;8.05;;;22.70;59.50;;;;;;5032961;28;20026;-69
2022/11/18 12:29:19;;;;;;;11.00;7.53;;;22.80;59.30;;;;;;5033991;28;20045;-69
2022/11/18 12:31:47;;;;;;;13.63;8.82;;;22.80;60.30;;;;;;5042499;28;20037;-69
2022/11/18 12:34:42;;;;;;;13.18;8.77;;;22.80;62.60;;;;;;5045108;28;20116;-68
2022/11/18 12:37:23;;;;;;;12.77;7.78;;;22.60;63.40;;;;;;5034114;28;20037;-68
2022/11/18 12:39:58;;;;;;;12.05;7.53;;;22.80;61.10;;;;;;5032359;28;20163;-71
2022/11/18 12:45:41;;;;;;;9.70;8.18;;;23.00;65.40;;;;;;5032722;28;20393;-74
2022/11/18 12:48:30;;;;;;;10.23;8.05;;;23.10;60.60;;;;;;5047149;28;20518;-72
2022/11/18 12:51:08;;;;;;;12.90;8.75;;;22.90;59.10;;;;;;5050688;28;20102;-73
2022/11/18 12:53:38;;;;;;;14.85;9.38;;;22.80;55.90;;;;;;5049616;28;20034;-72
2022/11/18 12:56:17;;;;;;;12.70;9.02;;;22.70;57.10;;;;;;5038657;28;20477;-73
2022/11/18 12:58:48;;;;;;;10.13;7.78;;;22.40;58.10;;;;;;5034931;28;20029;-73
2022/11/18 13:01:20;;;;;;;12.80;9.20;;;22.30;60.20;;;;;;5039126;28;20048;-73
2022/11/18 13:03:46;;;;;;;10.38;8.23;;;22.40;59.10;;;;;;5039943;28;20052;-72
2022/11/18 13:06:30;;;;;;;12.88;9.02;;;22.50;59.10;;;;;;5033284;28;20053;-72
2022/11/18 13:09:01;;;;;;;11.88;8.32;;;22.50;58.20;;;;;;5030365;28;20121;-73
2022/11/18 13:11:44;;;;;;;13.00;8.23;;;22.40;59.60;;;;;;5045113;28;20053;-72
2022/11/18 13:20:32;;;;;;;13.98;9.30;;;22.60;58.20;;;;;;5033196;28;20049;-72
2022/11/18 13:26:25;;;;;;;14.02;9.88;;;22.60;58.80;;;;;;5019135;28;20083;-72
2022/11/18 13:28:57;;;;;;;13.82;9.35;;;22.80;58.20;;;;;;5060433;28;20522;-72
2022/11/18 13:31:37;;;;;;;15.15;8.55;;;22.60;58.00;;;;;;5031679;28;20064;-71
2022/11/18 13:34:17;;;;;;;16.40;8.70;;;22.60;56.20;;;;;;5032299;28;20026;-71
2022/11/18 13:36:45;;;;;;;14.05;9.90;;;22.50;58.30;;;;;;5047445;28;20790;-71
2022/11/18 13:39:28;;;;;;;14.73;9.70;;;22.50;58.10;;;;;;5047311;28;20028;-71